sensor_id;sensor_type;location;lat;lon;timestamp;temperature;humidity
10873;DHT22;34586;53.616;10.032;2024-01-30T00:01:14;4.70;99.90
10873;DHT22;34586;53.616;10.032;2024-01-30T00:03:39;4.70;99.90
10873;DHT22;34586;53.616;10.032;2024-01-30T00:06:05;4.70;99.90
10873;DHT22;34586;53.616;10.032;2024-01-30T00:08:31;4.70;99.90
10873;DHT22;34586;53.616;10.032;2024-01-30T00:10:56;4.70;99.90
10873;DHT22;34586;53.616;10.032;2024-01-30T00:13:22;4.70;99.90
10873;DHT22;34586;53.616;10.032;2024-01-30T00:15:48;4.70;99.90
10873;DHT22;34586;53.616;10.032;2024-01-30T00:18:14;4.70;99.90
10873;DHT22;34586;53.616;10.032;2024-01-30T00:20:39;4.70;99.90
10873;DHT22;34586;53.616;10.032;2024-01-30T00:23:05;4.70;99.90
10873;DHT22;34586;53.616;10.032;2024-01-30T00:25:30;4.70;99.90
10873;DHT22;34586;53.616;10.032;2024-01-30T00:27:56;4.70;99.90
10873;DHT22;34586;53.616;10.032;2024-01-30T00:30:22;4.70;99.90
10873;DHT22;34586;53.616;10.032;2024-01-30T00:32:48;4.70;99.90
10873;DHT22;34586;53.616;10.032;2024-01-30T00:35:13;4.70;99.90
10873;DHT22;34586;53.616;10.032;2024-01-30T00:37:39;4.70;99.90
10873;DHT22;34586;53.616;10.032;2024-01-30T00:40:05;4.70;99.90
10873;DHT22;34586;53.616;10.032;2024-01-30T00:42:31;4.70;99.90
10873;DHT22;34586;53.616;10.032;2024-01-30T00:44:57;4.70;99.90
10873;DHT22;34586;53.616;10.032;2024-01-30T00:47:23;4.70;99.90
10873;DHT22;34586;53.616;10.032;2024-01-30T00:49:49;4.70;99.90
10873;DHT22;34586;53.616;10.032;2024-01-30T00:52:15;4.70;99.90
10873;DHT22;34586;53.616;10.032;2024-01-30T00:54:41;4.70;99.90
10873;DHT22;34586;53.616;10.032;2024-01-30T00:57:07;4.70;99.90
10873;DHT22;34586;53.616;10.032;2024-01-30T00:59:33;4.70;99.90
10873;DHT22;34586;53.616;10.032;2024-01-30T01:01:58;4.70;99.90
10873;DHT22;34586;53.616;10.032;2024-01-30T01:04:24;4.60;99.90
10873;DHT22;34586;53.616;10.032;2024-01-30T01:06:52;4.60;99.90
10873;DHT22;34586;53.616;10.032;2024-01-30T01:09:17;4.70;99.90
10873;DHT22;34586;53.616;10.032;2024-01-30T01:11:43;4.60;99.90
10873;DHT22;34586;53.616;10.032;2024-01-30T01:14:09;4.60;99.90
10873;DHT22;34586;53.616;10.032;2024-01-30T01:16:34;4.60;99.90
10873;DHT22;34586;53.616;10.032;2024-01-30T01:19:00;4.60;99.90
10873;DHT22;34586;53.616;10.032;2024-01-30T01:21:26;4.50;99.90
10873;DHT22;34586;53.616;10.032;2024-01-30T01:23:51;4.50;99.90
10873;DHT22;34586;53.616;10.032;2024-01-30T01:26:17;4.60;99.90
10873;DHT22;34586;53.616;10.032;2024-01-30T01:28:42;4.60;99.90
10873;DHT22;34586;53.616;10.032;2024-01-30T01:31:08;4.60;99.90
10873;DHT22;34586;53.616;10.032;2024-01-30T01:33:34;4.60;99.90
10873;DHT22;34586;53.616;10.032;2024-01-30T01:36:01;4.60;99.90
10873;DHT22;34586;53.616;10.032;2024-01-30T01:38:29;4.60;99.90
10873;DHT22;34586;53.616;10.032;2024-01-30T01:40:55;4.60;99.90
10873;DHT22;34586;53.616;10.032;2024-01-30T01:43:21;4.60;99.90
10873;DHT22;34586;53.616;10.032;2024-01-30T01:45:46;4.60;99.90
10873;DHT22;34586;53.616;10.032;2024-01-30T01:48:12;4.60;99.90
10873;DHT22;34586;53.616;10.032;2024-01-30T01:50:38;4.70;99.90
10873;DHT22;34586;53.616;10.032;2024-01-30T01:53:07;4.70;99.90
10873;DHT22;34586;53.616;10.032;2024-01-30T01:55:33;4.70;99.90
10873;DHT22;34586;53.616;10.032;2024-01-30T01:57:59;4.70;99.90
10873;DHT22;34586;53.616;10.032;2024-01-30T02:00:25;4.70;99.90
10873;DHT22;34586;53.616;10.032;2024-01-30T02:02:51;4.80;99.90
10873;DHT22;34586;53.616;10.032;2024-01-30T02:05:19;4.80;99.90
10873;DHT22;34586;53.616;10.032;2024-01-30T02:07:45;4.80;99.90
10873;DHT22;34586;53.616;10.032;2024-01-30T02:10:11;4.90;99.90
10873;DHT22;34586;53.616;10.032;2024-01-30T02:12:37;4.90;99.90
10873;DHT22;34586;53.616;10.032;2024-01-30T02:15:02;4.90;99.90
10873;DHT22;34586;53.616;10.032;2024-01-30T02:17:30;4.90;99.90
10873;DHT22;34586;53.616;10.032;2024-01-30T02:19:56;4.90;99.90
10873;DHT22;34586;53.616;10.032;2024-01-30T02:22:22;4.90;99.90
10873;DHT22;34586;53.616;10.032;2024-01-30T02:24:49;4.90;99.90
10873;DHT22;34586;53.616;10.032;2024-01-30T02:27:14;4.90;99.90
10873;DHT22;34586;53.616;10.032;2024-01-30T02:29:40;4.90;99.90
10873;DHT22;34586;53.616;10.032;2024-01-30T02:32:06;4.90;99.90
10873;DHT22;34586;53.616;10.032;2024-01-30T02:34:33;4.90;99.90
10873;DHT22;34586;53.616;10.032;2024-01-30T02:36:58;4.90;99.90
10873;DHT22;34586;53.616;10.032;2024-01-30T02:39:24;4.90;99.90
10873;DHT22;34586;53.616;10.032;2024-01-30T02:41:50;4.90;99.90
10873;DHT22;34586;53.616;10.032;2024-01-30T02:44:15;4.80;99.90
10873;DHT22;34586;53.616;10.032;2024-01-30T02:46:41;4.80;99.90
10873;DHT22;34586;53.616;10.032;2024-01-30T02:49:07;4.90;99.90
10873;DHT22;34586;53.616;10.032;2024-01-30T02:51:32;4.80;99.90
10873;DHT22;34586;53.616;10.032;2024-01-30T02:53:58;4.80;99.90
10873;DHT22;34586;53.616;10.032;2024-01-30T02:56:24;4.80;99.90
10873;DHT22;34586;53.616;10.032;2024-01-30T02:58:49;4.70;99.90
10873;DHT22;34586;53.616;10.032;2024-01-30T03:01:15;4.70;99.90
10873;DHT22;34586;53.616;10.032;2024-01-30T03:03:40;4.70;99.90
10873;DHT22;34586;53.616;10.032;2024-01-30T03:06:06;4.70;99.90
10873;DHT22;34586;53.616;10.032;2024-01-30T03:08:32;4.70;99.90
10873;DHT22;34586;53.616;10.032;2024-01-30T03:11:00;4.60;99.90
10873;DHT22;34586;53.616;10.032;2024-01-30T03:13:25;4.60;99.90
10873;DHT22;34586;53.616;10.032;2024-01-30T03:15:51;4.60;99.90
10873;DHT22;34586;53.616;10.032;2024-01-30T03:18:17;4.60;99.90
10873;DHT22;34586;53.616;10.032;2024-01-30T03:20:43;4.60;99.90
10873;DHT22;34586;53.616;10.032;2024-01-30T03:23:08;4.50;99.90
10873;DHT22;34586;53.616;10.032;2024-01-30T03:25:34;4.50;99.90
10873;DHT22;34586;53.616;10.032;2024-01-30T03:27:59;4.50;99.90
10873;DHT22;34586;53.616;10.032;2024-01-30T03:30:25;4.50;99.90
10873;DHT22;34586;53.616;10.032;2024-01-30T03:32:51;4.50;99.90
10873;DHT22;34586;53.616;10.032;2024-01-30T03:35:16;4.50;99.90
10873;DHT22;34586;53.616;10.032;2024-01-30T03:37:42;4.50;99.90
10873;DHT22;34586;53.616;10.032;2024-01-30T03:40:08;4.50;99.90
10873;DHT22;34586;53.616;10.032;2024-01-30T03:42:33;4.40;99.90
10873;DHT22;34586;53.616;10.032;2024-01-30T03:44:59;4.30;99.90
10873;DHT22;34586;53.616;10.032;2024-01-30T03:47:24;4.40;99.90
10873;DHT22;34586;53.616;10.032;2024-01-30T03:49:50;4.30;99.90
10873;DHT22;34586;53.616;10.032;2024-01-30T03:52:17;4.30;99.90
10873;DHT22;34586;53.616;10.032;2024-01-30T03:54:42;4.30;99.90
10873;DHT22;34586;53.616;10.032;2024-01-30T03:57:08;4.30;99.90
10873;DHT22;34586;53.616;10.032;2024-01-30T03:59:34;4.30;99.90
10873;DHT22;34586;53.616;10.032;2024-01-30T04:02:00;4.30;99.90
10873;DHT22;34586;53.616;10.032;2024-01-30T04:04:25;4.30;99.90
10873;DHT22;34586;53.616;10.032;2024-01-30T04:06:51;4.30;99.90
10873;DHT22;34586;53.616;10.032;2024-01-30T04:09:16;4.30;99.90
10873;DHT22;34586;53.616;10.032;2024-01-30T04:11:42;4.30;99.90
10873;DHT22;34586;53.616;10.032;2024-01-30T04:14:08;4.20;99.90
10873;DHT22;34586;53.616;10.032;2024-01-30T04:16:34;4.30;99.90
10873;DHT22;34586;53.616;10.032;2024-01-30T04:19:00;4.30;99.90
10873;DHT22;34586;53.616;10.032;2024-01-30T04:21:25;4.30;99.90
10873;DHT22;34586;53.616;10.032;2024-01-30T04:23:51;4.30;99.90
10873;DHT22;34586;53.616;10.032;2024-01-30T04:26:17;4.30;99.90
10873;DHT22;34586;53.616;10.032;2024-01-30T04:28:46;4.30;99.90
10873;DHT22;34586;53.616;10.032;2024-01-30T04:31:12;4.30;99.90
10873;DHT22;34586;53.616;10.032;2024-01-30T04:33:37;4.20;99.90
10873;DHT22;34586;53.616;10.032;2024-01-30T04:36:03;4.20;99.90
10873;DHT22;34586;53.616;10.032;2024-01-30T04:38:30;4.20;99.90
10873;DHT22;34586;53.616;10.032;2024-01-30T04:40:55;4.20;99.90
10873;DHT22;34586;53.616;10.032;2024-01-30T04:43:21;4.20;99.90
10873;DHT22;34586;53.616;10.032;2024-01-30T04:45:47;4.20;99.90
10873;DHT22;34586;53.616;10.032;2024-01-30T04:48:13;4.20;99.90
10873;DHT22;34586;53.616;10.032;2024-01-30T04:50:39;4.20;99.90
10873;DHT22;34586;53.616;10.032;2024-01-30T04:53:04;4.20;99.90
10873;DHT22;34586;53.616;10.032;2024-01-30T04:55:30;4.10;99.90
10873;DHT22;34586;53.616;10.032;2024-01-30T04:57:55;4.10;99.90
10873;DHT22;34586;53.616;10.032;2024-01-30T05:00:21;4.20;99.90
10873;DHT22;34586;53.616;10.032;2024-01-30T05:02:46;4.20;99.90
10873;DHT22;34586;53.616;10.032;2024-01-30T05:05:14;4.20;99.90
10873;DHT22;34586;53.616;10.032;2024-01-30T05:07:41;4.20;99.90
10873;DHT22;34586;53.616;10.032;2024-01-30T05:10:07;4.20;99.90
10873;DHT22;34586;53.616;10.032;2024-01-30T05:12:33;4.20;99.90
10873;DHT22;34586;53.616;10.032;2024-01-30T05:14:59;4.20;99.90
10873;DHT22;34586;53.616;10.032;2024-01-30T05:17:25;4.20;99.90
10873;DHT22;34586;53.616;10.032;2024-01-30T05:19:50;4.30;99.90
10873;DHT22;34586;53.616;10.032;2024-01-30T05:22:16;4.30;99.90
10873;DHT22;34586;53.616;10.032;2024-01-30T05:24:44;4.30;99.90
10873;DHT22;34586;53.616;10.032;2024-01-30T05:27:10;4.40;99.90
10873;DHT22;34586;53.616;10.032;2024-01-30T05:29:35;4.40;99.90
10873;DHT22;34586;53.616;10.032;2024-01-30T05:32:02;4.50;99.90
10873;DHT22;34586;53.616;10.032;2024-01-30T05:34:28;4.50;99.90
10873;DHT22;34586;53.616;10.032;2024-01-30T05:36:53;4.50;99.90
10873;DHT22;34586;53.616;10.032;2024-01-30T05:39:19;4.60;99.90
10873;DHT22;34586;53.616;10.032;2024-01-30T05:41:44;4.60;99.90
10873;DHT22;34586;53.616;10.032;2024-01-30T05:44:10;4.70;99.90
10873;DHT22;34586;53.616;10.032;2024-01-30T05:46:35;4.70;99.90
10873;DHT22;34586;53.616;10.032;2024-01-30T05:49:01;4.70;99.90
10873;DHT22;34586;53.616;10.032;2024-01-30T05:51:26;4.70;99.90
10873;DHT22;34586;53.616;10.032;2024-01-30T05:53:53;4.70;99.90
10873;DHT22;34586;53.616;10.032;2024-01-30T05:56:19;4.70;99.90
10873;DHT22;34586;53.616;10.032;2024-01-30T05:58:45;4.60;99.90
10873;DHT22;34586;53.616;10.032;2024-01-30T06:01:10;4.70;99.90
10873;DHT22;34586;53.616;10.032;2024-01-30T06:03:36;4.60;99.90
10873;DHT22;34586;53.616;10.032;2024-01-30T06:06:01;4.60;99.90
10873;DHT22;34586;53.616;10.032;2024-01-30T06:08:27;4.60;99.90
10873;DHT22;34586;53.616;10.032;2024-01-30T06:10:53;4.60;99.90
10873;DHT22;34586;53.616;10.032;2024-01-30T06:13:18;4.60;99.90
10873;DHT22;34586;53.616;10.032;2024-01-30T06:15:44;4.60;99.90
10873;DHT22;34586;53.616;10.032;2024-01-30T06:18:09;4.70;99.90
10873;DHT22;34586;53.616;10.032;2024-01-30T06:20:36;4.70;99.90
10873;DHT22;34586;53.616;10.032;2024-01-30T06:23:01;4.70;99.90
10873;DHT22;34586;53.616;10.032;2024-01-30T06:25:27;4.70;99.90
10873;DHT22;34586;53.616;10.032;2024-01-30T06:27:52;4.70;99.90
10873;DHT22;34586;53.616;10.032;2024-01-30T06:30:18;4.80;99.90
10873;DHT22;34586;53.616;10.032;2024-01-30T06:32:44;4.80;99.90
10873;DHT22;34586;53.616;10.032;2024-01-30T06:35:09;4.90;99.90
10873;DHT22;34586;53.616;10.032;2024-01-30T06:37:36;4.90;99.90
10873;DHT22;34586;53.616;10.032;2024-01-30T06:40:01;4.90;99.90
10873;DHT22;34586;53.616;10.032;2024-01-30T06:42:27;5.00;99.90
10873;DHT22;34586;53.616;10.032;2024-01-30T06:44:53;5.00;99.90
10873;DHT22;34586;53.616;10.032;2024-01-30T06:47:19;5.00;99.90
10873;DHT22;34586;53.616;10.032;2024-01-30T06:49:44;5.10;99.90
10873;DHT22;34586;53.616;10.032;2024-01-30T06:52:10;5.10;99.90
10873;DHT22;34586;53.616;10.032;2024-01-30T06:54:36;5.10;99.90
10873;DHT22;34586;53.616;10.032;2024-01-30T06:57:02;5.10;99.90
10873;DHT22;34586;53.616;10.032;2024-01-30T06:59:28;5.10;99.90
10873;DHT22;34586;53.616;10.032;2024-01-30T07:01:53;5.10;99.90
10873;DHT22;34586;53.616;10.032;2024-01-30T07:04:19;5.20;99.90
10873;DHT22;34586;53.616;10.032;2024-01-30T07:06:45;5.20;99.90
10873;DHT22;34586;53.616;10.032;2024-01-30T07:09:10;5.10;99.90
10873;DHT22;34586;53.616;10.032;2024-01-30T07:11:36;5.10;99.90
10873;DHT22;34586;53.616;10.032;2024-01-30T07:14:01;5.10;99.90
10873;DHT22;34586;53.616;10.032;2024-01-30T07:16:30;5.00;99.90
10873;DHT22;34586;53.616;10.032;2024-01-30T07:18:55;5.00;99.90
10873;DHT22;34586;53.616;10.032;2024-01-30T07:21:22;4.90;99.90
10873;DHT22;34586;53.616;10.032;2024-01-30T07:23:56;4.90;99.90
10873;DHT22;34586;53.616;10.032;2024-01-30T07:26:22;4.90;99.90
10873;DHT22;34586;53.616;10.032;2024-01-30T07:28:48;5.00;99.90
10873;DHT22;34586;53.616;10.032;2024-01-30T07:31:13;4.90;99.90
10873;DHT22;34586;53.616;10.032;2024-01-30T07:33:39;4.90;99.90
10873;DHT22;34586;53.616;10.032;2024-01-30T07:36:05;4.90;99.90
10873;DHT22;34586;53.616;10.032;2024-01-30T07:38:34;4.90;99.90
10873;DHT22;34586;53.616;10.032;2024-01-30T07:40:59;4.90;99.90
10873;DHT22;34586;53.616;10.032;2024-01-30T07:43:25;5.00;99.90
10873;DHT22;34586;53.616;10.032;2024-01-30T07:45:51;5.00;99.90
10873;DHT22;34586;53.616;10.032;2024-01-30T07:48:16;5.10;99.90
10873;DHT22;34586;53.616;10.032;2024-01-30T07:50:42;5.10;99.90
10873;DHT22;34586;53.616;10.032;2024-01-30T07:53:08;5.10;99.90
10873;DHT22;34586;53.616;10.032;2024-01-30T07:55:33;5.20;99.90
10873;DHT22;34586;53.616;10.032;2024-01-30T08:01:27;5.40;99.90
10873;DHT22;34586;53.616;10.032;2024-01-30T08:03:53;5.40;99.90
10873;DHT22;34586;53.616;10.032;2024-01-30T08:06:18;5.60;99.90
10873;DHT22;34586;53.616;10.032;2024-01-30T08:08:45;5.50;99.90
10873;DHT22;34586;53.616;10.032;2024-01-30T08:11:10;5.60;99.90
10873;DHT22;34586;53.616;10.032;2024-01-30T08:13:36;5.60;99.90
10873;DHT22;34586;53.616;10.032;2024-01-30T08:16:01;5.70;99.90
10873;DHT22;34586;53.616;10.032;2024-01-30T08:18:27;5.60;99.90
10873;DHT22;34586;53.616;10.032;2024-01-30T08:20:52;5.70;99.90
10873;DHT22;34586;53.616;10.032;2024-01-30T08:23:18;5.70;99.90
10873;DHT22;34586;53.616;10.032;2024-01-30T08:25:44;5.80;99.90
10873;DHT22;34586;53.616;10.032;2024-01-30T08:28:09;5.80;99.90
10873;DHT22;34586;53.616;10.032;2024-01-30T08:30:35;5.90;99.90
10873;DHT22;34586;53.616;10.032;2024-01-30T08:33:01;5.90;99.90
10873;DHT22;34586;53.616;10.032;2024-01-30T08:35:26;6.00;99.90
10873;DHT22;34586;53.616;10.032;2024-01-30T08:37:52;6.00;99.90
10873;DHT22;34586;53.616;10.032;2024-01-30T08:40:17;6.10;99.90
10873;DHT22;34586;53.616;10.032;2024-01-30T08:42:43;6.10;99.90
10873;DHT22;34586;53.616;10.032;2024-01-30T08:45:09;6.20;99.90
10873;DHT22;34586;53.616;10.032;2024-01-30T08:47:34;6.30;99.90
10873;DHT22;34586;53.616;10.032;2024-01-30T08:50:00;6.30;99.90
10873;DHT22;34586;53.616;10.032;2024-01-30T08:52:26;6.30;99.90
10873;DHT22;34586;53.616;10.032;2024-01-30T08:54:52;6.30;99.90
10873;DHT22;34586;53.616;10.032;2024-01-30T08:57:17;6.30;99.90
10873;DHT22;34586;53.616;10.032;2024-01-30T08:59:43;6.40;99.90
10873;DHT22;34586;53.616;10.032;2024-01-30T09:02:11;6.40;99.90
10873;DHT22;34586;53.616;10.032;2024-01-30T09:04:40;6.40;99.90
10873;DHT22;34586;53.616;10.032;2024-01-30T09:07:05;6.50;99.90
10873;DHT22;34586;53.616;10.032;2024-01-30T09:09:34;6.50;99.90
10873;DHT22;34586;53.616;10.032;2024-01-30T09:11:59;6.50;99.90
10873;DHT22;34586;53.616;10.032;2024-01-30T09:14:29;6.60;99.90
10873;DHT22;34586;53.616;10.032;2024-01-30T09:16:56;6.60;99.90
10873;DHT22;34586;53.616;10.032;2024-01-30T09:19:21;6.70;99.90
10873;DHT22;34586;53.616;10.032;2024-01-30T09:21:47;6.80;99.90
10873;DHT22;34586;53.616;10.032;2024-01-30T09:24:12;6.80;99.90
10873;DHT22;34586;53.616;10.032;2024-01-30T09:26:38;6.80;99.90
10873;DHT22;34586;53.616;10.032;2024-01-30T09:29:04;6.80;99.90
10873;DHT22;34586;53.616;10.032;2024-01-30T09:31:29;6.90;99.90
10873;DHT22;34586;53.616;10.032;2024-01-30T09:33:55;7.00;99.90
10873;DHT22;34586;53.616;10.032;2024-01-30T09:36:21;7.00;99.90
10873;DHT22;34586;53.616;10.032;2024-01-30T09:38:47;7.10;99.90
10873;DHT22;34586;53.616;10.032;2024-01-30T09:41:13;7.10;99.90
10873;DHT22;34586;53.616;10.032;2024-01-30T09:43:39;7.10;99.90
10873;DHT22;34586;53.616;10.032;2024-01-30T09:46:05;7.20;99.90
10873;DHT22;34586;53.616;10.032;2024-01-30T09:48:33;7.20;99.90
10873;DHT22;34586;53.616;10.032;2024-01-30T09:50:59;7.20;99.90
10873;DHT22;34586;53.616;10.032;2024-01-30T09:53:25;7.20;99.90
10873;DHT22;34586;53.616;10.032;2024-01-30T09:55:51;7.20;99.90
10873;DHT22;34586;53.616;10.032;2024-01-30T09:58:17;7.30;99.90
10873;DHT22;34586;53.616;10.032;2024-01-30T10:00:43;7.30;99.90
10873;DHT22;34586;53.616;10.032;2024-01-30T10:03:09;7.40;99.90
10873;DHT22;34586;53.616;10.032;2024-01-30T10:05:36;7.40;99.90
10873;DHT22;34586;53.616;10.032;2024-01-30T10:08:06;7.50;99.90
10873;DHT22;34586;53.616;10.032;2024-01-30T10:10:32;7.50;99.90
10873;DHT22;34586;53.616;10.032;2024-01-30T10:12:57;7.60;99.90
10873;DHT22;34586;53.616;10.032;2024-01-30T10:15:24;7.60;99.90
10873;DHT22;34586;53.616;10.032;2024-01-30T10:17:51;7.80;99.90
10873;DHT22;34586;53.616;10.032;2024-01-30T10:20:16;7.80;99.90
10873;DHT22;34586;53.616;10.032;2024-01-30T10:22:44;7.80;99.90
10873;DHT22;34586;53.616;10.032;2024-01-30T10:25:11;7.90;99.90
10873;DHT22;34586;53.616;10.032;2024-01-30T10:27:36;7.90;99.90
10873;DHT22;34586;53.616;10.032;2024-01-30T10:30:05;8.00;99.90
10873;DHT22;34586;53.616;10.032;2024-01-30T10:32:30;8.10;99.90
10873;DHT22;34586;53.616;10.032;2024-01-30T10:34:56;8.10;99.90
10873;DHT22;34586;53.616;10.032;2024-01-30T10:37:25;8.20;99.90
10873;DHT22;34586;53.616;10.032;2024-01-30T10:39:53;8.20;99.90
10873;DHT22;34586;53.616;10.032;2024-01-30T10:42:20;8.30;99.90
10873;DHT22;34586;53.616;10.032;2024-01-30T10:45:14;8.40;99.90
10873;DHT22;34586;53.616;10.032;2024-01-30T10:47:55;8.50;99.90
10873;DHT22;34586;53.616;10.032;2024-01-30T10:50:25;8.50;99.90
10873;DHT22;34586;53.616;10.032;2024-01-30T10:52:51;8.60;99.90
10873;DHT22;34586;53.616;10.032;2024-01-30T10:55:18;8.70;99.90
10873;DHT22;34586;53.616;10.032;2024-01-30T10:57:44;8.70;99.90
10873;DHT22;34586;53.616;10.032;2024-01-30T11:00:14;8.70;99.90
10873;DHT22;34586;53.616;10.032;2024-01-30T11:02:45;8.80;99.90
10873;DHT22;34586;53.616;10.032;2024-01-30T11:05:11;8.80;99.90
10873;DHT22;34586;53.616;10.032;2024-01-30T11:07:39;8.90;99.90
10873;DHT22;34586;53.616;10.032;2024-01-30T11:10:05;8.90;99.90
10873;DHT22;34586;53.616;10.032;2024-01-30T11:12:38;8.90;99.90
10873;DHT22;34586;53.616;10.032;2024-01-30T11:22:46;9.10;99.90
10873;DHT22;34586;53.616;10.032;2024-01-30T11:25:15;9.30;99.90
10873;DHT22;34586;53.616;10.032;2024-01-30T11:27:43;9.30;99.90
10873;DHT22;34586;53.616;10.032;2024-01-30T11:30:09;9.30;99.90
10873;DHT22;34586;53.616;10.032;2024-01-30T11:32:35;9.40;99.90
10873;DHT22;34586;53.616;10.032;2024-01-30T11:35:02;9.30;99.90
10873;DHT22;34586;53.616;10.032;2024-01-30T11:37:28;9.30;99.90
10873;DHT22;34586;53.616;10.032;2024-01-30T11:39:56;9.20;99.90
10873;DHT22;34586;53.616;10.032;2024-01-30T11:42:23;9.30;99.90
10873;DHT22;34586;53.616;10.032;2024-01-30T11:44:52;9.40;99.90
10873;DHT22;34586;53.616;10.032;2024-01-30T11:47:18;9.50;99.90
10873;DHT22;34586;53.616;10.032;2024-01-30T11:49:44;9.40;99.90
10873;DHT22;34586;53.616;10.032;2024-01-30T11:52:10;9.40;99.90
10873;DHT22;34586;53.616;10.032;2024-01-30T11:54:35;9.40;99.90
10873;DHT22;34586;53.616;10.032;2024-01-30T11:57:01;9.40;99.90
10873;DHT22;34586;53.616;10.032;2024-01-30T11:59:27;9.40;99.90
10873;DHT22;34586;53.616;10.032;2024-01-30T12:01:52;9.40;99.90
10873;DHT22;34586;53.616;10.032;2024-01-30T12:04:18;9.50;99.90
10873;DHT22;34586;53.616;10.032;2024-01-30T12:06:44;9.40;99.90
10873;DHT22;34586;53.616;10.032;2024-01-30T12:09:10;9.50;99.90
10873;DHT22;34586;53.616;10.032;2024-01-30T12:11:47;9.30;99.90
10873;DHT22;34586;53.616;10.032;2024-01-30T12:14:13;9.40;99.90
10873;DHT22;34586;53.616;10.032;2024-01-30T12:16:39;9.50;99.90
10873;DHT22;34586;53.616;10.032;2024-01-30T12:19:05;9.50;99.90
10873;DHT22;34586;53.616;10.032;2024-01-30T12:21:30;9.40;99.90
10873;DHT22;34586;53.616;10.032;2024-01-30T12:23:59;9.50;99.90
10873;DHT22;34586;53.616;10.032;2024-01-30T12:26:26;9.40;99.90
10873;DHT22;34586;53.616;10.032;2024-01-30T12:28:54;9.50;99.90
10873;DHT22;34586;53.616;10.032;2024-01-30T12:31:27;9.40;99.90
10873;DHT22;34586;53.616;10.032;2024-01-30T12:33:53;9.40;99.90
10873;DHT22;34586;53.616;10.032;2024-01-30T12:36:20;9.40;99.90
10873;DHT22;34586;53.616;10.032;2024-01-30T12:38:46;9.40;99.90
10873;DHT22;34586;53.616;10.032;2024-01-30T12:41:11;9.50;99.90
10873;DHT22;34586;53.616;10.032;2024-01-30T12:43:37;9.60;99.90
10873;DHT22;34586;53.616;10.032;2024-01-30T12:46:03;9.60;99.90
10873;DHT22;34586;53.616;10.032;2024-01-30T12:48:29;9.60;99.90
10873;DHT22;34586;53.616;10.032;2024-01-30T12:50:56;9.80;99.90
10873;DHT22;34586;53.616;10.032;2024-01-30T12:53:21;9.80;99.90
10873;DHT22;34586;53.616;10.032;2024-01-30T12:55:47;9.80;99.90
10873;DHT22;34586;53.616;10.032;2024-01-30T12:58:12;9.80;99.90
10873;DHT22;34586;53.616;10.032;2024-01-30T13:00:38;9.70;99.90
10873;DHT22;34586;53.616;10.032;2024-01-30T13:03:04;9.80;99.90
10873;DHT22;34586;53.616;10.032;2024-01-30T13:05:30;9.80;99.90
10873;DHT22;34586;53.616;10.032;2024-01-30T13:07:55;9.80;99.90
10873;DHT22;34586;53.616;10.032;2024-01-30T13:10:23;9.90;99.90
10873;DHT22;34586;53.616;10.032;2024-01-30T13:12:48;9.90;99.90
10873;DHT22;34586;53.616;10.032;2024-01-30T13:15:14;9.90;99.90
10873;DHT22;34586;53.616;10.032;2024-01-30T13:17:40;9.90;99.90
10873;DHT22;34586;53.616;10.032;2024-01-30T13:20:08;9.90;99.90
10873;DHT22;34586;53.616;10.032;2024-01-30T13:22:34;9.90;99.90
10873;DHT22;34586;53.616;10.032;2024-01-30T13:24:59;9.90;99.90
10873;DHT22;34586;53.616;10.032;2024-01-30T13:27:25;9.90;99.90
10873;DHT22;34586;53.616;10.032;2024-01-30T13:29:51;10.00;99.90
10873;DHT22;34586;53.616;10.032;2024-01-30T13:32:16;9.90;99.90
10873;DHT22;34586;53.616;10.032;2024-01-30T13:34:42;9.80;99.90
10873;DHT22;34586;53.616;10.032;2024-01-30T13:37:08;9.90;99.90
10873;DHT22;34586;53.616;10.032;2024-01-30T13:39:34;9.80;99.90
10873;DHT22;34586;53.616;10.032;2024-01-30T13:41:59;9.90;99.90
10873;DHT22;34586;53.616;10.032;2024-01-30T13:44:25;9.90;99.90
10873;DHT22;34586;53.616;10.032;2024-01-30T13:46:51;9.90;99.90
10873;DHT22;34586;53.616;10.032;2024-01-30T13:49:16;9.90;99.90
10873;DHT22;34586;53.616;10.032;2024-01-30T13:51:42;9.90;99.90
10873;DHT22;34586;53.616;10.032;2024-01-30T13:54:07;9.90;99.90
10873;DHT22;34586;53.616;10.032;2024-01-30T13:56:33;9.80;99.90
10873;DHT22;34586;53.616;10.032;2024-01-30T13:58:59;9.80;99.90
10873;DHT22;34586;53.616;10.032;2024-01-30T14:01:26;9.80;99.90
10873;DHT22;34586;53.616;10.032;2024-01-30T14:03:52;9.80;99.90
10873;DHT22;34586;53.616;10.032;2024-01-30T14:06:18;9.80;99.90
10873;DHT22;34586;53.616;10.032;2024-01-30T14:08:44;9.90;99.90
10873;DHT22;34586;53.616;10.032;2024-01-30T14:11:09;9.80;99.90
10873;DHT22;34586;53.616;10.032;2024-01-30T14:13:35;9.90;99.90
10873;DHT22;34586;53.616;10.032;2024-01-30T14:16:00;9.90;99.90
10873;DHT22;34586;53.616;10.032;2024-01-30T14:18:26;9.90;99.90
10873;DHT22;34586;53.616;10.032;2024-01-30T14:20:52;9.90;99.90
10873;DHT22;34586;53.616;10.032;2024-01-30T14:23:18;9.90;99.90
10873;DHT22;34586;53.616;10.032;2024-01-30T14:25:44;10.00;99.90
10873;DHT22;34586;53.616;10.032;2024-01-30T14:28:10;9.90;99.90
10873;DHT22;34586;53.616;10.032;2024-01-30T14:30:35;9.90;99.90
10873;DHT22;34586;53.616;10.032;2024-01-30T14:33:01;10.00;99.90
10873;DHT22;34586;53.616;10.032;2024-01-30T14:35:27;10.00;99.90
10873;DHT22;34586;53.616;10.032;2024-01-30T14:37:53;10.00;99.90
10873;DHT22;34586;53.616;10.032;2024-01-30T14:40:19;10.00;99.90
10873;DHT22;34586;53.616;10.032;2024-01-30T14:42:45;10.00;99.90
10873;DHT22;34586;53.616;10.032;2024-01-30T14:45:11;10.10;99.90
10873;DHT22;34586;53.616;10.032;2024-01-30T14:47:37;10.10;99.90
10873;DHT22;34586;53.616;10.032;2024-01-30T14:50:03;10.10;99.90
10873;DHT22;34586;53.616;10.032;2024-01-30T14:52:31;10.10;99.90
10873;DHT22;34586;53.616;10.032;2024-01-30T14:54:57;10.00;99.90
10873;DHT22;34586;53.616;10.032;2024-01-30T14:57:24;10.10;99.90
10873;DHT22;34586;53.616;10.032;2024-01-30T14:59:49;10.10;99.90
10873;DHT22;34586;53.616;10.032;2024-01-30T15:02:15;10.20;99.90
10873;DHT22;34586;53.616;10.032;2024-01-30T15:04:41;10.10;99.90
10873;DHT22;34586;53.616;10.032;2024-01-30T15:07:06;10.10;99.90
10873;DHT22;34586;53.616;10.032;2024-01-30T15:09:32;10.10;99.90
10873;DHT22;34586;53.616;10.032;2024-01-30T15:11:58;10.10;99.90
10873;DHT22;34586;53.616;10.032;2024-01-30T15:14:23;10.10;99.90
10873;DHT22;34586;53.616;10.032;2024-01-30T15:16:49;10.10;99.90
10873;DHT22;34586;53.616;10.032;2024-01-30T15:19:15;10.10;99.90
10873;DHT22;34586;53.616;10.032;2024-01-30T15:21:41;10.10;99.90
10873;DHT22;34586;53.616;10.032;2024-01-30T15:24:06;10.20;99.90
10873;DHT22;34586;53.616;10.032;2024-01-30T15:26:32;10.20;99.90
10873;DHT22;34586;53.616;10.032;2024-01-30T15:28:58;10.10;99.90
10873;DHT22;34586;53.616;10.032;2024-01-30T15:31:23;10.20;99.90
10873;DHT22;34586;53.616;10.032;2024-01-30T15:33:49;10.20;99.90